sensor_id;sensor_type;location;lat;lon;timestamp;pressure;altitude;pressure_sealevel;temperature;humidity
70488;BME280;57976;48.174;16.370;2023-05-19T00:01:24;99991.98;;;11.49;85.33
70488;BME280;57976;48.174;16.370;2023-05-19T00:03:29;99981.27;;;11.48;85.49
70488;BME280;57976;48.174;16.370;2023-05-19T00:05:35;99987.24;;;11.47;85.53
70488;BME280;57976;48.174;16.370;2023-05-19T00:07:40;99988.55;;;11.47;85.62
70488;BME280;57976;48.174;16.370;2023-05-19T00:09:48;99985.38;;;11.45;85.77
70488;BME280;57976;48.174;16.370;2023-05-19T00:11:53;99981.64;;;11.44;85.77
70488;BME280;57976;48.174;16.370;2023-05-19T00:13:59;99977.48;;;11.43;85.89
70488;BME280;57976;48.174;16.370;2023-05-19T00:16:04;99978.69;;;11.42;85.87
70488;BME280;57976;48.174;16.370;2023-05-19T00:18:09;99979.05;;;11.41;85.55
70488;BME280;57976;48.174;16.370;2023-05-19T00:20:14;99979.83;;;11.36;85.90
70488;BME280;57976;48.174;16.370;2023-05-19T00:22:19;99981.07;;;11.33;85.83
70488;BME280;57976;48.174;16.370;2023-05-19T00:24:24;99980.98;;;11.34;86.33
70488;BME280;57976;48.174;16.370;2023-05-19T00:26:30;99980.64;;;11.35;86.45
70488;BME280;57976;48.174;16.370;2023-05-19T00:28:41;99982.12;;;11.36;86.41
70488;BME280;57976;48.174;16.370;2023-05-19T00:30:46;99983.42;;;11.36;86.71
70488;BME280;57976;48.174;16.370;2023-05-19T00:32:51;99981.19;;;11.32;86.93
70488;BME280;57976;48.174;16.370;2023-05-19T00:34:56;99978.35;;;11.32;86.61
70488;BME280;57976;48.174;16.370;2023-05-19T00:37:01;99975.50;;;11.29;86.99
70488;BME280;57976;48.174;16.370;2023-05-19T00:39:05;99972.30;;;11.31;86.62
70488;BME280;57976;48.174;16.370;2023-05-19T00:41:10;99971.08;;;11.32;86.72
70488;BME280;57976;48.174;16.370;2023-05-19T00:43:15;99968.52;;;11.33;86.62
70488;BME280;57976;48.174;16.370;2023-05-19T00:45:20;99970.66;;;11.35;87.15
70488;BME280;57976;48.174;16.370;2023-05-19T00:47:25;99971.55;;;11.38;86.96
70488;BME280;57976;48.174;16.370;2023-05-19T00:49:29;99971.39;;;11.38;86.85
70488;BME280;57976;48.174;16.370;2023-05-19T00:51:34;99970.18;;;11.36;86.67
70488;BME280;57976;48.174;16.370;2023-05-19T00:53:39;99968.57;;;11.32;87.02
70488;BME280;57976;48.174;16.370;2023-05-19T00:55:44;99966.59;;;11.31;87.29
70488;BME280;57976;48.174;16.370;2023-05-19T00:57:49;99968.34;;;11.28;87.28
70488;BME280;57976;48.174;16.370;2023-05-19T00:59:54;99967.99;;;11.27;87.35
70488;BME280;57976;48.174;16.370;2023-05-19T01:01:59;99963.98;;;11.28;87.72
70488;BME280;57976;48.174;16.370;2023-05-19T01:05:42;99964.08;;;11.25;87.68
70488;BME280;57976;48.174;16.370;2023-05-19T01:07:48;99959.59;;;11.20;87.78
70488;BME280;57976;48.174;16.370;2023-05-19T01:09:54;99962.54;;;11.19;88.06
70488;BME280;57976;48.174;16.370;2023-05-19T01:12:00;99968.19;;;11.18;87.86
70488;BME280;57976;48.174;16.370;2023-05-19T01:14:05;99965.11;;;11.14;88.15
70488;BME280;57976;48.174;16.370;2023-05-19T01:16:13;99964.02;;;11.11;88.35
70488;BME280;57976;48.174;16.370;2023-05-19T01:18:27;99962.45;;;11.08;88.18
70488;BME280;57976;48.174;16.370;2023-05-19T01:20:40;99958.96;;;11.03;88.01
70488;BME280;57976;48.174;16.370;2023-05-19T01:23:10;99953.89;;;10.97;88.53
70488;BME280;57976;48.174;16.370;2023-05-19T01:28:58;99952.54;;;10.89;89.24
70488;BME280;57976;48.174;16.370;2023-05-19T01:31:07;99948.79;;;10.88;89.25
70488;BME280;57976;48.174;16.370;2023-05-19T01:33:15;99951.95;;;10.85;89.46
70488;BME280;57976;48.174;16.370;2023-05-19T01:35:23;99952.02;;;10.85;89.72
